Last 7 Days

Suisun Valley

Hourly Data | America/Los_Angeles
as of 8/11/20 5:19 AM PDT
Date & Time Temp (°F) RH (%) Dew Pt (°F) Wind Spd (mph) Wind Dir (°) Wind Gust (mph) Latest Rain (In) Daily Rain (In) Daily Min Temp (°F) Daily Max Temp (°F)
8/11/20 - 0500 61.0 83 55.8 8.2 SW | 227 15.8 0.00 0.00 60.8 64.0
8/11/20 - 0400 61.6 81 55.8 7.7 SW | 225 15.5 0.00 0.00 61.2 64.0
8/11/20 - 0300 62.3 79 55.7 7.7 SW | 236 19.5 0.00 0.00 61.9 64.0
8/11/20 - 0200 63.1 76 55.6 8.5 SW | 220 18.8 0.00 0.00 62.1 64.0
8/11/20 - 0100 65.6 68 54.5 8.0 SW | 224 17.2 0.00 0.00 60.4 91.6
8/11/20 - 0000 68.4 57 52.7 8.8 SW | 230 19.5 0.00 0.00 60.4 91.6
8/10/20 - 2300 71.0 49 50.6 10.4 SW | 231 20.5 0.00 0.00 60.4 91.6
8/10/20 - 2200 72.8 44 49.7 11.8 SW | 232 26.9 0.00 0.00 60.4 91.6
8/10/20 - 2100 75.0 41 49.5 12.3 SW | 228 22.5 0.00 0.00 60.4 91.6
8/10/20 - 2000 77.3 40 51.0 11.9 SW | 224 20.9 0.00 0.00 60.4 91.6
8/10/20 - 1900 81.5 37 52.4 10.8 SW | 230 19.5 0.00 0.00 60.4 91.6
8/10/20 - 1800 84.2 34 53.0 11.9 WSW | 243 22.9 0.00 0.00 60.4 91.6
8/10/20 - 1700 87.1 31 53.1 12.7 SW | 234 22.9 0.00 0.00 60.4 91.6
8/10/20 - 1600 89.2 32 55.1 11.2 SW | 235 19.5 0.00 0.00 60.4 91.6
8/10/20 - 1500 90.9 31 56.4 10.0 WSW | 242 18.2 0.00 0.00 60.4 91.6
8/10/20 - 1400 88.9 34 56.8 7.8 SW | 231 15.5 0.00 0.00 60.4 90.5
8/10/20 - 1300 86.4 36 55.9 7.7 SW | 234 15.5 0.00 0.00 60.4 87.9
8/10/20 - 1200 84.2 38 56.1 6.6 SW | 216 13.2 0.00 0.00 60.4 85.5
8/10/20 - 1100 83.1 39 55.4 4.6 S | 190 9.8 0.00 0.00 60.4 83.6
8/10/20 - 1000 80.6 42 55.6 3.7 SE | 133 7.8 0.00 0.00 60.4 82.7
8/10/20 - 0900 73.1 54 55.6 0.5 WSW | 248 3.4 0.00 0.00 60.4 79.2
8/10/20 - 0800 65.4 66 53.7 0.0 WSW | 249 2.1 0.00 0.00 60.4 69.5
8/10/20 - 0700 60.9 70 51.2 0.1 WSW | 252 2.1 0.00 0.00 60.4 68.8
8/10/20 - 0600 61.4 66 49.8 0.3 WSW | 246 3.4 0.00 0.00 60.6 68.8
8/10/20 - 0500 62.8 63 49.9 0.3 WSW | 246 3.4 0.00 0.00 61.4 68.8
8/10/20 - 0400 64.2 60 50.0 0.3 WSW | 240 2.7 0.00 0.00 63.7 68.8
8/10/20 - 0300 67.0 52 49.0 1.0 SW | 214 6.1 0.00 0.00 65.5 68.8
8/10/20 - 0200 67.2 52 48.7 0.2 WSW | 248 3.1 0.00 0.00 65.9 68.7
8/10/20 - 0100 69.0 50 49.9 0.2 WSW | 246 2.7 0.00 0.00 58.1 97.1
8/10/20 - 0000 72.4 42 48.2 0.5 W | 263 3.4 0.00 0.00 58.1 97.1
8/9/20 - 2300 74.8 39 47.9 0.9 SSW | 212 5.4 0.00 0.00 58.1 97.1
8/9/20 - 2200 76.5 38 49.2 0.8 SW | 223 4.8 0.00 0.00 58.1 97.1
8/9/20 - 2100 80.8 31 47.4 4.0 SW | 222 10.8 0.00 0.00 58.1 97.1
8/9/20 - 2000 85.4 26 47.0 7.3 WSW | 246 17.5 0.00 0.00 58.1 97.1
8/9/20 - 1900 89.8 25 48.9 10.7 WSW | 238 21.9 0.00 0.00 58.1 97.1
8/9/20 - 1800 93.3 27 54.2 9.2 WSW | 243 17.8 0.00 0.00 58.1 97.1
8/9/20 - 1700 94.1 28 55.5 9.8 WSW | 245 17.2 0.00 0.00 58.1 97.1
8/9/20 - 1600 95.9 26 55.9 8.1 WSW | 246 15.8 0.00 0.00 58.1 97.1
8/9/20 - 1500 95.9 26 55.6 6.1 SSW | 208 11.1 0.00 0.00 58.1 97.0
8/9/20 - 1400 93.1 28 55.0 5.7 SSW | 197 11.1 0.00 0.00 58.1 94.8
8/9/20 - 1300 89.1 30 53.9 5.3 SSW | 202 9.8 0.00 0.00 58.1 92.1
8/9/20 - 1200 85.2 34 54.0 5.7 SSW | 202 10.8 0.00 0.00 58.1 86.9
8/9/20 - 1100 81.9 40 55.0 4.7 SSW | 200 9.1 0.00 0.00 58.1 83.7
8/9/20 - 1000 81.1 45 57.7 2.2 SW | 225 7.1 0.00 0.00 58.1 83.3
8/9/20 - 0900 71.8 62 58.2 0.7 WSW | 244 4.4 0.00 0.00 58.1 76.8
8/9/20 - 0800 63.3 76 55.6 0.0 WSW | 247 1.7 0.00 0.00 58.1 67.8
8/9/20 - 0700 58.5 83 53.3 0.0 N | 0 0.0 0.00 0.00 58.1 64.9
8/9/20 - 0600 58.9 81 53.1 0.0 N | 0 0.0 0.00 0.00 58.6 64.9
8/9/20 - 0500 60.1 79 53.6 0.0 WSW | 249 1.7 0.00 0.00 59.3 64.9
8/9/20 - 0400 61.2 77 54.1 0.1 WSW | 252 2.7 0.00 0.00 60.6 64.9
8/9/20 - 0300 61.9 76 54.1 0.1 WSW | 252 2.4 0.00 0.00 61.4 64.9
8/9/20 - 0200 63.6 73 54.7 0.0 WSW | 250 1.7 0.00 0.00 62.4 64.9
8/9/20 - 0100 66.4 67 55.0 0.2 WSW | 247 4.4 0.00 0.00 57.0 90.1
8/9/20 - 0000 69.9 60 55.4 3.1 SW | 222 10.1 0.00 0.00 57.0 90.1
8/8/20 - 2300 72.0 56 55.6 0.5 S | 185 4.1 0.00 0.00 57.0 90.1
8/8/20 - 2200 74.0 53 55.9 0.6 S | 190 4.8 0.00 0.00 57.0 90.1
8/8/20 - 2100 77.7 47 55.7 3.7 SW | 231 10.1 0.00 0.00 57.0 90.1
8/8/20 - 2000 81.0 42 55.9 6.1 SW | 229 12.5 0.00 0.00 57.0 90.1
8/8/20 - 1900 84.3 39 56.5 8.9 WSW | 237 16.8 0.00 0.00 57.0 90.1
8/8/20 - 1800 87.4 36 57.2 9.0 WSW | 238 16.8 0.00 0.00 57.0 90.1
8/8/20 - 1700 89.1 34 57.2 9.7 WSW | 242 17.8 0.00 0.00 57.0 90.1
8/8/20 - 1600 89.5 33 56.8 9.5 WSW | 246 17.2 0.00 0.00 57.0 90.1
8/8/20 - 1500 88.7 35 57.3 8.8 WSW | 244 16.8 0.00 0.00 57.0 89.7
8/8/20 - 1400 88.3 36 58.3 6.4 SW | 217 14.2 0.00 0.00 57.0 89.7
8/8/20 - 1300 85.1 40 57.9 5.6 SSW | 196 11.8 0.00 0.00 57.0 87.5
8/8/20 - 1200 80.4 47 58.3 6.0 S | 190 11.5 0.00 0.00 57.0 82.6
8/8/20 - 1100 77.0 52 58.3 6.0 SSW | 194 11.1 0.00 0.00 57.0 79.4
8/8/20 - 1000 74.2 56 57.5 5.4 SSW | 194 10.1 0.00 0.00 57.0 75.7
8/8/20 - 0900 69.0 66 57.1 1.2 SSW | 208 8.4 0.00 0.00 57.0 72.5
8/8/20 - 0800 62.6 78 55.7 0.0 WSW | 252 1.7 0.00 0.00 57.0 69.0
8/8/20 - 0700 57.6 84 52.9 0.0 N | 0 0.0 0.00 0.00 57.0 69.0
8/8/20 - 0600 58.0 83 52.9 0.0 N | 0 0.0 0.00 0.00 57.8 69.0
8/8/20 - 0500 58.8 81 53.0 0.0 N | 0 0.0 0.00 0.00 58.5 69.0
8/8/20 - 0400 60.3 78 53.5 0.0 N | 0 0.0 0.00 0.00 59.3 69.0
8/8/20 - 0300 63.1 74 54.6 0.3 WSW | 251 3.1 0.00 0.00 61.4 69.0
8/8/20 - 0200 67.2 64 54.7 2.4 SSW | 209 9.5 0.00 0.00 65.0 69.0
8/8/20 - 0100 66.4 67 55.2 0.7 SW | 226 6.1 0.00 0.00 55.6 91.0
8/8/20 - 0000 66.2 69 55.7 0.1 W | 262 2.7 0.00 0.00 55.6 91.0
8/7/20 - 2300 68.2 65 56.0 0.1 W | 261 3.1 0.00 0.00 55.6 91.0
8/7/20 - 2200 72.1 57 56.0 0.2 W | 259 2.7 0.00 0.00 55.6 91.0
8/7/20 - 2100 77.8 46 55.2 4.1 WSW | 238 13.8 0.00 0.00 55.6 91.0
8/7/20 - 2000 79.7 43 55.1 6.8 WSW | 257 15.5 0.00 0.00 55.6 91.0
8/7/20 - 1900 82.4 39 55.3 10.9 WSW | 241 19.8 0.00 0.00 55.6 91.0
8/7/20 - 1800 85.2 37 55.9 9.6 WSW | 240 17.5 0.00 0.00 55.6 91.0
8/7/20 - 1700 89.1 34 57.0 6.2 SW | 230 15.2 0.00 0.00 55.6 91.0
8/7/20 - 1600 89.8 34 58.0 5.6 SSW | 199 11.5 0.00 0.00 55.6 91.0
8/7/20 - 1500 88.8 36 58.3 4.2 S | 180 10.5 0.00 0.00 55.6 91.0
8/7/20 - 1400 85.9 39 58.2 5.0 S | 177 10.1 0.00 0.00 55.6 87.0
8/7/20 - 1300 83.0 43 58.2 4.2 S | 171 9.8 0.00 0.00 55.6 84.5
8/7/20 - 1200 77.8 50 57.7 2.5 SW | 218 7.8 0.00 0.00 55.6 80.7
8/7/20 - 1100 73.7 57 57.5 3.9 SSW | 209 9.1 0.00 0.00 55.6 75.5
8/7/20 - 1000 68.6 66 56.7 4.2 WSW | 248 9.5 0.00 0.00 55.6 71.4
8/7/20 - 0900 65.0 73 56.2 2.9 SW | 231 6.8 0.00 0.00 55.6 67.2
8/7/20 - 0800 60.1 84 55.1 1.0 WSW | 240 5.1 0.00 0.00 55.6 64.1
8/7/20 - 0700 56.2 88 52.8 0.1 WSW | 243 3.8 0.00 0.00 55.6 64.1
8/7/20 - 0600 57.1 86 53.0 0.0 WSW | 243 2.1 0.00 0.00 55.9 64.1
8/7/20 - 0500 59.4 83 54.4 1.5 WSW | 255 9.5 0.00 0.00 57.6 64.1
8/7/20 - 0400 60.7 82 55.1 2.4 WSW | 248 11.1 0.00 0.00 59.6 64.1
8/7/20 - 0300 61.8 80 55.5 6.2 WSW | 242 14.5 0.00 0.00 61.5 64.1
8/7/20 - 0200 63.2 75 55.2 2.7 WSW | 258 8.8 0.00 0.00 62.3 64.1
8/7/20 - 0100 65.2 68 54.3 4.2 SW | 228 10.8 0.00 0.00 59.1 85.4
8/7/20 - 0000 66.9 62 53.5 4.6 SSW | 213 10.8 0.00 0.00 59.1 85.4
8/6/20 - 2300 68.1 60 53.5 5.0 SW | 214 9.8 0.00 0.00 59.1 85.4
8/6/20 - 2200 69.0 60 54.4 6.0 SSW | 199 13.2 0.00 0.00 59.1 85.4
8/6/20 - 2100 72.8 50 53.2 5.1 SW | 226 10.8 0.00 0.00 59.1 85.4
8/6/20 - 2000 78.5 40 52.3 2.8 WSW | 248 10.5 0.00 0.00 59.1 85.4
8/6/20 - 1900 80.9 41 55.1 6.6 SW | 228 16.2 0.00 0.00 59.1 85.4
8/6/20 - 1800 83.0 41 56.6 8.5 SW | 218 17.5 0.00 0.00 59.1 85.4
8/6/20 - 1700 84.2 39 56.7 8.8 SW | 218 16.2 0.00 0.00 59.1 85.4
8/6/20 - 1600 84.6 38 56.5 9.6 SW | 234 17.2 0.00 0.00 59.1 85.4
8/6/20 - 1500 84.2 40 57.3 9.1 WSW | 238 15.5 0.00 0.00 59.1 85.1
8/6/20 - 1400 82.5 43 57.9 6.6 WSW | 242 13.8 0.00 0.00 59.1 83.6
8/6/20 - 1300 79.4 50 59.1 4.7 SSW | 195 10.1 0.00 0.00 59.1 81.2
8/6/20 - 1200 74.2 59 58.9 4.0 S | 179 9.8 0.00 0.00 59.1 77.0
8/6/20 - 1100 68.5 69 58.0 6.1 SW | 223 12.8 0.00 0.00 59.1 71.4
8/6/20 - 1000 64.8 77 57.4 7.1 SW | 235 13.2 0.00 0.00 59.1 66.5
8/6/20 - 0900 62.2 83 56.9 5.0 WSW | 242 11.5 0.00 0.00 59.1 63.5
8/6/20 - 0800 60.5 86 56.3 3.1 WSW | 243 7.8 0.00 0.00 59.1 61.3
8/6/20 - 0700 59.4 87 55.7 4.4 WSW | 243 11.1 0.00 0.00 59.1 61.3
8/6/20 - 0600 59.7 88 56.0 6.0 WSW | 240 12.8 0.00 0.00 59.3 61.3
8/6/20 - 0500 60.1 87 56.2 6.1 SW | 235 12.5 0.00 0.00 59.4 61.3
8/6/20 - 0400 60.3 86 56.0 6.6 SW | 235 13.8 0.00 0.00 60.1 61.3
8/6/20 - 0300 60.6 84 55.9 5.8 WSW | 243 12.5 0.00 0.00 60.3 61.3
8/6/20 - 0200 61.1 83 55.9 4.8 SW | 236 11.5 0.00 0.00 60.8 61.3
8/6/20 - 0100 61.3 82 55.7 4.2 SW | 232 9.5 0.00 0.00 57.8 78.1
8/6/20 - 0000 61.3 81 55.6 4.5 SW | 224 9.5 0.00 0.00 57.8 78.1
8/5/20 - 2300 61.3 81 55.4 4.8 SW | 230 10.5 0.00 0.00 57.8 78.1
8/5/20 - 2200 62.0 79 55.4 4.9 SW | 225 10.8 0.00 0.00 57.8 78.1
8/5/20 - 2100 63.6 74 55.4 6.5 SSW | 207 12.8 0.00 0.00 57.8 78.1
8/5/20 - 2000 67.2 67 55.7 7.8 SSW | 205 19.5 0.00 0.00 57.8 78.1
8/5/20 - 1900 71.4 59 56.1 8.7 SSW | 206 17.2 0.00 0.00 57.8 78.1
8/5/20 - 1800 73.3 55 56.4 9.7 SW | 215 19.5 0.00 0.00 57.8 78.1
8/5/20 - 1700 74.6 54 57.0 10.2 SW | 214 21.2 0.00 0.00 57.8 78.1
8/5/20 - 1600 75.8 52 57.0 10.3 SW | 216 19.2 0.00 0.00 57.8 78.1
8/5/20 - 1500 77.5 50 57.4 8.1 SW | 215 17.5 0.00 0.00 57.8 78.1
8/5/20 - 1400 75.5 54 57.8 8.8 SSW | 193 16.5 0.00 0.00 57.8 76.3
8/5/20 - 1300 73.2 58 57.5 8.2 SSW | 196 14.8 0.00 0.00 57.8 74.5
8/5/20 - 1200 70.0 64 57.3 8.0 SSW | 194 15.2 0.00 0.00 57.8 71.9
8/5/20 - 1100 66.7 71 56.9 6.7 SSW | 207 14.2 0.00 0.00 57.8 68.8
8/5/20 - 1000 62.7 78 55.9 6.0 SW | 227 12.1 0.00 0.00 57.8 63.7
8/5/20 - 0900 60.7 82 55.2 5.2 WSW | 242 10.5 0.00 0.00 57.8 62.2
8/5/20 - 0800 59.2 86 54.8 5.7 WSW | 239 11.1 0.00 0.00 57.8 61.2
8/5/20 - 0700 57.9 88 54.4 6.3 SW | 226 13.2 0.00 0.00 57.8 61.2
8/5/20 - 0600 58.3 87 54.4 6.9 WSW | 239 12.5 0.00 0.00 57.9 61.2
8/5/20 - 0500 59.4 85 54.9 6.1 WSW | 254 10.8 0.00 0.00 58.9 61.2
8/5/20 - 0400 59.7 84 55.1 6.1 WSW | 248 12.5 0.00 0.00 59.6 61.2
8/5/20 - 0300 60.1 84 55.4 5.7 SW | 227 11.8 0.00 0.00 59.9 61.2
8/5/20 - 0200 60.6 83 55.4 7.2 SW | 221 15.5 0.00 0.00 60.2 61.2
8/5/20 - 0100 61.8 80 55.8 8.2 SW | 215 14.5 0.00 0.00 54.2 87.3
8/5/20 - 0000 62.9 79 56.5 9.1 SW | 214 17.2 0.00 0.00 54.2 87.3
8/4/20 - 2300 63.7 78 56.9 7.4 SSW | 212 14.5 0.00 0.00 54.2 87.3
8/4/20 - 2200 65.1 75 57.1 5.9 SSW | 203 13.2 0.00 0.00 54.2 87.3
8/4/20 - 2100 67.9 68 57.1 8.3 SSW | 202 14.5 0.00 0.00 54.2 87.3
8/4/20 - 2000 72.7 58 57.0 8.6 SSW | 208 18.2 0.00 0.00 54.2 87.3
8/4/20 - 1900 78.1 49 57.2 10.8 SW | 214 19.2 0.00 0.00 54.2 87.3
8/4/20 - 1800 81.5 43 57.0 10.0 SW | 224 21.2 0.00 0.00 54.2 87.3
8/4/20 - 1700 83.6 41 57.2 12.1 SW | 227 19.8 0.00 0.00 54.2 87.3
8/4/20 - 1600 84.8 40 57.5 11.7 SW | 229 22.5 0.00 0.00 54.2 87.3
8/4/20 - 1500 86.2 38 57.8 9.6 SW | 234 18.8 0.00 0.00 54.2 87.3
8/4/20 - 1400 84.5 41 58.4 7.8 SW | 231 15.2 0.00 0.00 54.2 86.1
8/4/20 - 1300 80.8 47 58.6 7.3 SW | 219 13.2 0.00 0.00 54.2 82.3
8/4/20 - 1200 78.0 51 58.6 6.7 SW | 222 12.5 0.00 0.00 54.2 79.2
8/4/20 - 1100 75.4 55 58.1 6.0 SW | 214 11.1 0.00 0.00 54.2 76.4
8/4/20 - 1000 72.8 59 57.6 3.3 SSW | 202 7.8 0.00 0.00 54.2 75.0
8/4/20 - 0900 67.6 70 57.3 2.1 SW | 215 6.8 0.00 0.00 54.2 70.4
8/4/20 - 0800 60.4 84 55.5 0.1 WSW | 256 2.4 0.00 0.00 54.2 67.2
8/4/20 - 0700 54.9 89 51.9 0.1 WSW | 245 2.7 0.00 0.00 54.2 67.2
8/4/20 - 0600 56.2 86 52.2 0.0 N | 0 0.0 0.00 0.00 54.8 67.2
Max 95.9 89 59.1 12.7 - 26.9 0.00 0.00 65.9 97.1
Avg 72.2 59 55.2 5.3 - 11.4 0.00 - - -
Min 54.9 25 47.0 0.0 - 0.0 0.00 0.00 54.2 61.2
Total - - - - - - 0.00 - - -
Tip: Bookmark this page for easy future reference